Ana Sayfa
METAR-TAF:

METAR-TAF

Havaalanları :

Darüsselam, Tanzanya

Enlem: 06-52S, Boylam: 039-12E, yükseklik: 55 m

Güncel hava durumu gözlemi

Rapor saat 19:00 UTC de 51 dakika önce yapıldı.
Rüzgar değişken yönden 2 kt
Sıcaklık 25°C
Nem 89%
Basınç 1017 hPa
Görüş mesafesi 10 km veya daha fazla
1000 ft yükseklikte parçalı bulutlu

METAR: HTDA 051900Z VRB02KT 9999 SCT010 25/23 Q1017 NOSIG

Saat: 22:51 (19:51 UTC)

Tahmin

Rapor saat 17:00 UTC de 2 saat ve 51 dakika önce yapıldı.
Ayın 05'si saat 18 UTC'den ayın 06'si saat 24 UTC'ye kadar geçerli Tahmin
Rüzgar güney/güneydoğudan 5 kt
Görüş mesafesi 10 km veya daha fazla
1200 ft yükseklikte az bulutlu
Dönüşüyor
ayın 06'si saat 05 UTC'den ayın 06'si saat 08 UTC'ye kadar
Rüzgar güney/güneybatıdan 15 kt
1500 ft yükseklikte parçalı çok bulutlu

TAF: HTDA 051700Z 0518/0624 16005KT 9999 FEW012 BECMG 0605/0608 20015KT BKN015

4.000'den fazla havaalanı için hava durumu gözlemleri ve tahminleri (METAR ve TAF raporları).

Kullanılabilir istasyonlar harita üzerinde sarı ve kırmızı noktalarla gösterilir.

İstasyonun adını görmek için fareyi noktanın üzerinde gezdirin.

Sonrasında hava gözlem ve tahminlerini görmek için tıklayın.

Haritayı değiştirmek için: yaklaştırmak için siyah artı işaretli yeşil düğmeye ve uzaklaştırmak için de eksi işaretli düğmeye hızla tıklayın; bitişik haritalar için yeşil okları kullanın.


METAR-TAF: